| time (UTC) | temp C | wind direction | speed KPH | gust KPH | rain 1hr cm | rain 24hr cm | rain mn cm | humidity % | barometer mb |
| 20260906093900 | 19 | 11 | 1.6 | 3.2 | 0.00 | 0.00 | 0.61 | 90 | 1014.6 |
| 20260906093352 | 19 | 164 | 0.0 | 0.0 | 0.00 | 0.00 | 0.51 | 90 | 1014.5 |
| 20260906093006 | 19 | 164 | 1.6 | 4.8 | 0.51 | 1.37 | 0.51 | 90 | 1011.2 |
| 20260906092927 | 19 | 164 | 0.0 | 6.4 | 0.46 | 1.32 | 0.48 | 90 | 1014.7 |
| 20260906092918 | 18 | 219 | 0.0 | 1.6 | 0.28 | 1.14 | 0.28 | 90 | 1014.6 |
| 20260906091906 | 18 | 219 | 1.6 | 6.4 | 0.28 | 1.14 | 0.28 | 90 | 1014.6 |
| 20260906091538 | 18 | 219 | 0.0 | 6.4 | 0.28 | 1.14 | 0.28 | 90 | 1011.2 |
| 20260906091356 | 18 | 237 | 3.2 | 9.7 | 0.28 | 1.14 | 0.28 | 90 | 1014.5 |
| 20260906090846 | 18 | 132 | 1.6 | 9.7 | 0.25 | 1.12 | 0.25 | 90 | 1014.4 |
| 20260906090336 | 18 | 9 | 0.0 | 3.2 | 0.05 | 0.91 | 0.08 | 90 | 1014.7 |
| 20260906090115 | 18 | 212 | 0.0 | 0.0 | 0.00 | 0.86 | 0.00 | 90 | 1011.4 |
| 20260906090046 | 18 | 212 | 0.0 | 0.0 | 0.00 | 0.86 | 0.00 | 90 | 1014.6 |
| 20260906085307 | 18 | 212 | 0.0 | 0.0 | 0.00 | 0.86 | 0.00 | 90 | 1014.3 |
| 20260906084757 | 18 | 212 | 0.0 | 0.0 | 0.00 | 0.86 | 0.00 | 90 | 1014.3 |
| 20260906084540 | 18 | 212 | 0.0 | 0.0 | 0.00 | 0.86 | 0.00 | 90 | 1011.0 |
| 20260906084256 | 18 | 212 | 0.0 | 0.0 | 0.00 | 0.86 | 0.00 | 90 | 1014.3 |
| 20260906083746 | 18 | 212 | 0.0 | 0.0 | 0.00 | 0.86 | 0.00 | 90 | 1014.3 |
| 20260906083237 | 18 | 212 | 0.0 | 0.0 | 0.00 | 0.86 | 0.00 | 90 | 1014.3 |
| 20260906083011 | 18 | 212 | 0.0 | 0.0 | 0.00 | 0.86 | 0.00 | 90 | 1011.0 |
| 20260906082731 | 18 | 212 | 0.0 | 0.0 | 0.00 | 0.86 | 0.00 | 90 | 1014.5 |
| 20260906082220 | 18 | 212 | 0.0 | 0.0 | 0.00 | 0.86 | 0.00 | 90 | 1014.4 |
| 20260906081710 | 18 | 212 | 0.0 | 0.0 | 0.00 | 0.86 | 0.00 | 90 | 1014.5 |
| 20260906081552 | 18 | 212 | 0.0 | 0.0 | 0.00 | 0.86 | 0.00 | 90 | 1011.2 |
| 20260906081200 | 18 | 212 | 0.0 | 0.0 | 0.00 | 0.86 | 0.00 | 90 | 1014.5 |
| 20260906080922 | 18 | 212 | 0.0 | 0.0 | 0.00 | 0.86 | 0.00 | 90 | 1014.6 |
| 20260906080140 | 18 | 212 | 0.0 | 0.0 | 0.00 | 0.86 | 0.00 | 90 | 1014.5 |
| 20260906080012 | 18 | 212 | 0.0 | 0.0 | 0.00 | 0.86 | 0.00 | 90 | 1011.2 |
| 20260906075626 | 18 | 212 | 0.0 | 0.0 | 0.00 | 0.86 | 0.00 | 90 | 1014.6 |
| 20260906075618 | 18 | 212 | 0.0 | 0.0 | 0.00 | 0.86 | 0.00 | 90 | 1014.6 |
| 20260906074606 | 18 | 212 | 0.0 | 0.0 | 0.00 | 0.86 | 0.00 | 90 | 1014.6 |
| 20260906074546 | 18 | 212 | 0.0 | 0.0 | 0.00 | 0.86 | 0.00 | 90 | 1011.3 |
| 20260906074056 | 18 | 212 | 0.0 | 0.0 | 0.00 | 0.86 | 0.00 | 90 | 1014.6 |
| 20260906073546 | 18 | 212 | 0.0 | 0.0 | 0.00 | 0.86 | 0.00 | 90 | 1014.6 |
| 20260906073116 | 18 | 212 | 0.0 | 0.0 | 0.00 | 0.86 | 0.00 | 90 | 1011.3 |
| 20260906073037 | 18 | 212 | 0.0 | 0.0 | 0.00 | 0.86 | 0.00 | 90 | 1014.7 |
| 20260906072745 | 18 | 212 | 0.0 | 0.0 | 0.00 | 0.86 | 0.00 | 90 | 1014.9 |
| 20260906072620 | 18 | 212 | 0.0 | 0.0 | 0.00 | 0.86 | 0.00 | 90 | 1014.8 |
| 20260906071541 | 18 | 212 | 0.0 | 0.0 | 0.00 | 0.86 | 0.00 | 90 | 1011.6 |
| 20260906071503 | 18 | 212 | 0.0 | 0.0 | 0.00 | 0.86 | 0.00 | 90 | 1015.0 |
| 20260906070952 | 18 | 212 | 0.0 | 0.0 | 0.00 | 0.86 | 0.00 | 90 | 1015.0 |
| 20260906070443 | 18 | 212 | 0.0 | 0.0 | 0.00 | 0.86 | 0.00 | 90 | 1014.9 |
| 20260906070435 | 18 | 212 | 0.0 | 0.0 | 0.00 | 0.86 | 0.00 | 90 | 1015.0 |
| 20260906070012 | 18 | 212 | 0.0 | 0.0 | 0.00 | 0.86 | 0.00 | 90 | 1011.7 |
| 20260906065418 | 18 | 212 | 0.0 | 0.0 | 0.00 | 0.86 | 0.00 | 90 | 1014.8 |
| 20260906064907 | 18 | 212 | 0.0 | 1.6 | 0.00 | 0.86 | 0.00 | 90 | 1014.7 |
| 20260906064630 | 18 | 212 | 0.0 | 3.2 | 0.00 | 0.86 | 0.00 | 90 | 1014.7 |
| 20260906064540 | 18 | 212 | 0.0 | 3.2 | 0.00 | 0.86 | 0.00 | 90 | 1011.4 |
| 20260906063851 | 18 | 212 | 0.0 | 3.2 | 0.00 | 0.86 | 0.00 | 90 | 1014.7 |
| 20260906063344 | 18 | 212 | 0.0 | 0.0 | 0.00 | 0.86 | 0.00 | 90 | 1014.9 |
| 20260906063044 | 18 | 212 | 0.0 | 0.0 | 0.00 | 0.86 | 0.00 | 90 | 1011.5 |
| 20260906062837 | 18 | 212 | 0.0 | 0.0 | 0.00 | 0.86 | 0.00 | 89 | 1014.9 |
| 20260906062325 | 18 | 212 | 0.0 | 0.0 | 0.00 | 0.86 | 0.00 | 89 | 1014.8 |
| 20260906061817 | 18 | 212 | 0.0 | 0.0 | 0.00 | 0.86 | 0.00 | 89 | 1015.0 |
| 20260906061552 | 18 | 212 | 0.0 | 0.0 | 0.00 | 0.86 | 0.00 | 89 | 1011.7 |
| 20260906061310 | 18 | 212 | 0.0 | 0.0 | 0.00 | 0.86 | 0.00 | 89 | 1015.2 |
| 20260906060801 | 18 | 212 | 0.0 | 0.0 | 0.00 | 0.86 | 0.00 | 89 | 1015.2 |
| 20260906060253 | 18 | 212 | 0.0 | 0.0 | 0.00 | 0.86 | 0.00 | 89 | 1015.3 |
| 20260906060043 | 18 | 212 | 0.0 | 0.0 | 0.00 | 0.86 | 0.00 | 89 | 1012.0 |
| 20260906055747 | 18 | 212 | 0.0 | 0.0 | 0.00 | 0.86 | 0.00 | 89 | 1015.2 |
| 20260906055237 | 18 | 212 | 0.0 | 0.0 | 0.00 | 0.86 | 0.00 | 89 | 1015.3 |
| 20260906054729 | 18 | 212 | 0.0 | 1.6 | 0.00 | 0.86 | 0.00 | 89 | 1015.4 |
| 20260906054517 | 18 | 212 | 0.0 | 1.6 | 0.00 | 0.86 | 0.00 | 89 | 1012.2 |
| 20260906054226 | 18 | 212 | 0.0 | 1.6 | 0.00 | 0.86 | 0.00 | 89 | 1015.7 |
| 20260906053718 | 18 | 212 | 0.0 | 0.0 | 0.00 | 0.86 | 0.00 | 89 | 1015.7 |
| 20260906053215 | 18 | 212 | 0.0 | 0.0 | 0.00 | 0.86 | 0.00 | 89 | 1015.7 |
| 20260906053008 | 18 | 212 | 0.0 | 0.0 | 0.00 | 0.86 | 0.00 | 89 | 1012.3 |
| 20260906052710 | 18 | 212 | 0.0 | 0.0 | 0.00 | 0.86 | 0.00 | 89 | 1015.8 |
| 20260906052200 | 18 | 212 | 0.0 | 0.0 | 0.00 | 0.86 | 0.00 | 89 | 1015.8 |
| 20260906051654 | 18 | 212 | 0.0 | 0.0 | 0.00 | 0.86 | 0.00 | 89 | 1015.9 |
| 20260906051550 | 18 | 212 | 0.0 | 0.0 | 0.00 | 0.86 | 0.00 | 89 | 1012.5 |
| 20260906051150 | 18 | 212 | 0.0 | 0.0 | 0.00 | 0.86 | 0.00 | 89 | 1015.8 |
| 20260906050650 | 18 | 212 | 0.0 | 0.0 | 0.00 | 0.86 | 0.00 | 89 | 1015.7 |
| 20260906050140 | 19 | 212 | 0.0 | 1.6 | 0.00 | 0.86 | 0.00 | 89 | 1015.8 |
| 20260906050016 | 18 | 212 | 0.0 | 1.6 | 0.00 | 0.86 | 0.00 | 89 | 1012.4 |
| 20260906045626 | 18 | 212 | 1.6 | 3.2 | 0.00 | 0.86 | 0.00 | 89 | 1015.8 |
| 20260906045118 | 18 | 212 | 0.0 | 3.2 | 0.00 | 0.86 | 0.00 | 89 | 1015.7 |
| 20260906044618 | 18 | 212 | 0.0 | 0.0 | 0.00 | 0.86 | 0.00 | 89 | 1015.8 |
| 20260906044612 | 18 | 212 | 0.0 | 0.0 | 0.00 | 0.86 | 0.00 | 89 | 1015.7 |
| 20260906044554 | 18 | 212 | 0.0 | 0.0 | 0.00 | 0.86 | 0.00 | 89 | 1012.4 |
| 20260906043836 | 18 | 212 | 0.0 | 0.0 | 0.00 | 0.86 | 0.00 | 89 | 1015.5 |
| 20260906043058 | 18 | 212 | 0.0 | 0.0 | 0.00 | 0.86 | 0.00 | 88 | 1015.4 |
| 20260906043047 | 18 | 212 | 0.0 | 0.0 | 0.00 | 0.86 | 0.00 | 88 | 1012.1 |
| 20260906042552 | 18 | 212 | 0.0 | 0.0 | 0.00 | 0.86 | 0.00 | 89 | 1015.4 |
| 20260906042040 | 18 | 212 | 0.0 | 0.0 | 0.00 | 0.86 | 0.00 | 89 | 1015.3 |
| 20260906041804 | 19 | 212 | 0.0 | 0.0 | 0.00 | 0.86 | 0.00 | 89 | 1015.3 |
| 20260906041513 | 19 | 212 | 0.0 | 0.0 | 0.00 | 0.86 | 0.00 | 89 | 1012.0 |
| 20260906041026 | 19 | 212 | 0.0 | 0.0 | 0.00 | 0.86 | 0.00 | 89 | 1015.3 |
| 20260906040527 | 19 | 212 | 0.0 | 0.0 | 0.00 | 0.86 | 0.00 | 89 | 1015.3 |
| 20260906040252 | 19 | 212 | 0.0 | 0.0 | 0.00 | 0.86 | 0.00 | 89 | 1015.4 |
| 20260906040057 | 19 | 212 | 0.0 | 0.0 | 0.00 | 0.86 | 0.00 | 89 | 1012.1 |
| 20260906035506 | 19 | 212 | 0.0 | 0.0 | 0.00 | 0.86 | 0.86 | 88 | 1015.5 |
| 20260906034952 | 19 | 212 | 0.0 | 0.0 | 0.00 | 0.86 | 0.86 | 88 | 1015.4 |
| 20260906034529 | 19 | 212 | 0.0 | 0.0 | 0.00 | 0.86 | 0.86 | 88 | 1012.1 |
| 20260906034443 | 19 | 212 | 0.0 | 0.0 | 0.00 | 0.86 | 0.86 | 88 | 1015.4 |
| 20260906033924 | 19 | 212 | 0.0 | 0.0 | 0.00 | 0.86 | 0.86 | 88 | 1015.7 |
| 20260906033647 | 19 | 212 | 0.0 | 0.0 | 0.00 | 0.86 | 0.86 | 89 | 1015.7 |
| 20260906033046 | 20 | 212 | 0.0 | 0.0 | 0.00 | 0.86 | 0.86 | 88 | 1012.2 |
| 20260906032905 | 20 | 212 | 0.0 | 0.0 | 0.00 | 0.86 | 0.86 | 88 | 1015.7 |
| 20260906032355 | 20 | 212 | 0.0 | 0.0 | 0.00 | 0.86 | 0.86 | 88 | 1015.7 |
| 20260906031840 | 20 | 212 | 0.0 | 0.0 | 0.00 | 0.86 | 0.86 | 88 | 1015.7 |
| 20260906031514 | 20 | 212 | 0.0 | 0.0 | 0.00 | 0.86 | 0.86 | 88 | 1012.3 |
| 20260906031331 | 20 | 212 | 0.0 | 0.0 | 0.00 | 0.86 | 0.86 | 88 | 1015.7 |
| 20260906031323 | 20 | 212 | 0.0 | 1.6 | 0.00 | 0.86 | 0.86 | 88 | 1015.9 |
| 20260906030311 | 20 | 212 | 0.0 | 1.6 | 0.00 | 0.86 | 0.86 | 88 | 1015.9 |
| 20260906030044 | 20 | 212 | 0.0 | 1.6 | 0.00 | 0.86 | 0.86 | 88 | 1012.5 |
| 20260906025801 | 20 | 212 | 0.0 | 1.6 | 0.00 | 0.86 | 0.86 | 88 | 1015.9 |
| 20260906025250 | 20 | 212 | 0.0 | 1.6 | 0.00 | 0.86 | 0.86 | 88 | 1015.8 |
| 20260906024736 | 20 | 212 | 0.0 | 0.0 | 0.00 | 0.86 | 0.86 | 88 | 1015.8 |
| 20260906024510 | 20 | 212 | 0.0 | 0.0 | 0.00 | 0.86 | 0.86 | 88 | 1012.4 |
| 20260906024227 | 20 | 212 | 0.0 | 1.6 | 0.00 | 0.86 | 0.86 | 88 | 1015.9 |
| 20260906023717 | 20 | 212 | 0.0 | 1.6 | 0.00 | 0.86 | 0.86 | 88 | 1015.9 |
| 20260906023710 | 20 | 212 | 0.0 | 1.6 | 0.00 | 0.86 | 0.86 | 88 | 1015.9 |
| 20260906023041 | 20 | 212 | 0.0 | 1.6 | 0.00 | 0.86 | 0.86 | 88 | 1012.6 |
| 20260906022656 | 20 | 212 | 0.0 | 1.6 | 0.00 | 0.86 | 0.86 | 88 | 1016.0 |
| 20260906022156 | 20 | 212 | 0.0 | 0.0 | 0.00 | 0.86 | 0.86 | 88 | 1015.9 |
| 20260906021642 | 20 | 212 | 0.0 | 0.0 | 0.00 | 0.86 | 0.86 | 88 | 1015.9 |
| 20260906021518 | 20 | 212 | 0.0 | 0.0 | 0.00 | 0.86 | 0.86 | 88 | 1012.5 |
| 20260906021404 | 20 | 212 | 0.0 | 0.0 | 0.00 | 0.86 | 0.86 | 87 | 1016.0 |
| 20260906020623 | 20 | 212 | 0.0 | 0.0 | 0.00 | 0.86 | 0.86 | 87 | 1015.9 |
| 20260906020112 | 20 | 212 | 0.0 | 1.6 | 0.00 | 0.86 | 0.86 | 88 | 1015.8 |
| 20260906020058 | 20 | 212 | 0.0 | 1.6 | 0.00 | 0.86 | 0.86 | 88 | 1012.3 |
| 20260906015602 | 21 | 212 | 0.0 | 1.6 | 0.00 | 0.86 | 0.86 | 88 | 1015.7 |
| 20260906015052 | 21 | 212 | 0.0 | 1.6 | 0.00 | 0.86 | 0.86 | 87 | 1015.7 |
| 20260906014531 | 21 | 212 | 0.0 | 1.6 | 0.00 | 0.86 | 0.86 | 87 | 1015.7 |
| 20260906014508 | 20 | 212 | 0.0 | 1.6 | 0.00 | 0.86 | 0.86 | 87 | 1012.2 |
| 20260906014012 | 21 | 212 | 0.0 | 1.6 | 0.00 | 0.86 | 0.86 | 87 | 1015.7 |
| 20260906013502 | 21 | 212 | 0.0 | 3.2 | 0.00 | 0.86 | 0.86 | 87 | 1015.5 |
| 20260906013053 | 21 | 212 | 0.0 | 3.2 | 0.00 | 0.86 | 0.86 | 87 | 1012.0 |
| 20260906012953 | 21 | 212 | 1.6 | 3.2 | 0.00 | 0.86 | 0.86 | 87 | 1015.4 |
| 20260906012712 | 21 | 212 | 0.0 | 3.2 | 0.00 | 0.86 | 0.86 | 87 | 1015.4 |
| 20260906011931 | 21 | 212 | 0.0 | 1.6 | 0.00 | 0.86 | 0.86 | 86 | 1015.4 |
| 20260906011558 | 21 | 212 | 0.0 | 1.6 | 0.00 | 0.86 | 0.86 | 87 | 1011.8 |
| 20260906011416 | 21 | 212 | 0.0 | 1.6 | 0.00 | 0.86 | 0.86 | 87 | 1015.2 |
| 20260906010908 | 21 | 212 | 0.0 | 0.0 | 0.00 | 0.86 | 0.86 | 86 | 1015.1 |
| 20260906010408 | 21 | 212 | 0.0 | 0.0 | 0.00 | 0.86 | 0.86 | 86 | 1015.1 |
| 20260906010040 | 21 | 212 | 0.0 | 0.0 | 0.00 | 0.86 | 0.86 | 86 | 1011.6 |
| 20260906005858 | 21 | 212 | 0.0 | 0.0 | 0.00 | 0.86 | 0.86 | 86 | 1015.1 |
| 20260906005349 | 21 | 212 | 0.0 | 0.0 | 0.00 | 0.86 | 0.86 | 86 | 1015.2 |
| 20260906004838 | 21 | 212 | 0.0 | 0.0 | 0.00 | 0.86 | 0.86 | 86 | 1015.1 |
| 20260906004506 | 21 | 212 | 0.0 | 0.0 | 0.00 | 0.86 | 0.86 | 86 | 1011.4 |
| 20260906004324 | 21 | 212 | 0.0 | 0.0 | 0.00 | 0.86 | 0.86 | 86 | 1015.1 |
| 20260906003814 | 21 | 212 | 0.0 | 0.0 | 0.00 | 0.86 | 0.86 | 85 | 1015.0 |
| 20260906003535 | 21 | 212 | 0.0 | 0.0 | 0.00 | 0.86 | 0.86 | 85 | 1014.9 |
| 20260906003039 | 21 | 212 | 0.0 | 0.0 | 0.00 | 0.86 | 0.86 | 85 | 1011.3 |
| 20260906002755 | 22 | 212 | 0.0 | 0.0 | 0.00 | 0.86 | 0.86 | 85 | 1014.9 |
| 20260906002244 | 22 | 212 | 0.0 | 1.6 | 0.00 | 0.86 | 0.86 | 85 | 1014.9 |
| 20260906001734 | 22 | 212 | 0.0 | 1.6 | 0.00 | 0.86 | 0.86 | 84 | 1014.9 |
| 20260906001504 | 22 | 212 | 0.0 | 0.0 | 0.00 | 0.86 | 0.86 | 84 | 1011.3 |
| 20260906001220 | 22 | 212 | 0.0 | 0.0 | 0.00 | 0.86 | 0.86 | 84 | 1014.9 |
| 20260906000710 | 22 | 212 | 0.0 | 0.0 | 0.00 | 0.86 | 0.86 | 84 | 1014.9 |
| 20260906000441 | 22 | 212 | 0.0 | 0.0 | 0.00 | 0.86 | 0.86 | 83 | 1014.8 |
| 20260906000052 | 22 | 212 | 0.0 | 0.0 | 0.00 | 0.86 | 0.86 | 84 | 1011.2 |
| 20260905235701 | 22 | 212 | 0.0 | 0.0 | 0.00 | 0.86 | 0.86 | 83 | 1014.7 |
| 20260905235150 | 22 | 212 | 0.0 | 1.6 | 0.00 | 0.86 | 0.86 | 83 | 1014.6 |
| 20260905234641 | 23 | 212 | 0.0 | 1.6 | 0.00 | 0.86 | 0.86 | 82 | 1014.5 |
| 20260905234511 | 23 | 212 | 0.0 | 1.6 | 0.00 | 0.86 | 0.86 | 82 | 1010.9 |
| 20260905234119 | 23 | 212 | 0.0 | 3.2 | 0.00 | 0.86 | 0.86 | 81 | 1014.6 |
| 20260905233607 | 23 | 212 | 0.0 | 3.2 | 0.00 | 0.86 | 0.86 | 80 | 1014.5 |
| 20260905233056 | 23 | 212 | 0.0 | 3.2 | 0.00 | 0.86 | 0.86 | 79 | 1014.6 |
| 20260905233042 | 23 | 212 | 0.0 | 1.6 | 0.00 | 0.86 | 0.86 | 79 | 1010.9 |
| 20260905232547 | 24 | 212 | 0.0 | 3.2 | 0.00 | 0.86 | 0.86 | 77 | 1014.7 |
| 20260905232036 | 25 | 212 | 0.0 | 3.2 | 0.00 | 0.86 | 0.86 | 76 | 1014.7 |
| 20260905231607 | 25 | 212 | 0.0 | 3.2 | 0.00 | 0.86 | 0.86 | 75 | 1011.1 |
| 20260905231528 | 25 | 212 | 0.0 | 3.2 | 0.00 | 0.86 | 0.86 | 75 | 1014.7 |
| 20260905231012 | 25 | 212 | 0.0 | 1.6 | 0.00 | 0.86 | 0.86 | 73 | 1014.7 |
| 20260905230506 | 26 | 212 | 0.0 | 3.2 | 0.00 | 0.86 | 0.86 | 72 | 1014.7 |
| 20260905230459 | 26 | 212 | 1.6 | 4.8 | 0.00 | 0.86 | 0.86 | 72 | 1014.8 |
| 20260905230040 | 26 | 212 | 0.0 | 4.8 | 0.00 | 0.86 | 0.86 | 72 | 1011.1 |
| 20260905225449 | 26 | 191 | 1.6 | 6.4 | 0.00 | 0.86 | 0.86 | 71 | 1014.8 |
| 20260905224933 | 26 | 210 | 0.0 | 6.4 | 0.00 | 0.86 | 0.86 | 72 | 1014.7 |
| 20260905224504 | 26 | 210 | 0.0 | 6.4 | 0.00 | 0.86 | 0.86 | 71 | 1011.2 |
| 20260905224428 | 26 | 275 | 1.6 | 6.4 | 0.00 | 0.86 | 0.86 | 71 | 1014.7 |
| 20260905223913 | 26 | 267 | 1.6 | 6.4 | 0.00 | 0.86 | 0.86 | 70 | 1014.9 |
| 20260905223405 | 26 | 254 | 3.2 | 8.0 | 0.00 | 0.86 | 0.86 | 70 | 1014.8 |
| 20260905223042 | 26 | 227 | 0.0 | 11.3 | 0.00 | 0.86 | 0.86 | 70 | 1011.3 |
| 20260905222900 | 26 | 227 | 4.8 | 11.3 | 0.00 | 0.86 | 0.86 | 70 | 1014.9 |
| 20260905222354 | 26 | 241 | 3.2 | 11.3 | 0.00 | 0.86 | 0.86 | 69 | 1015.0 |
| 20260905221846 | 26 | 226 | 4.8 | 19.3 | 0.00 | 0.86 | 0.86 | 70 | 1015.0 |
| 20260905221614 | 26 | 213 | 4.8 | 19.3 | 0.00 | 0.86 | 0.86 | 69 | 1015.0 |
| 20260905221523 | 26 | 210 | 1.6 | 19.3 | 0.00 | 0.86 | 0.86 | 70 | 1011.5 |
| 20260905220836 | 26 | 222 | 3.2 | 12.9 | 0.00 | 0.86 | 0.86 | 70 | 1014.9 |
| 20260905220607 | 26 | 215 | 3.2 | 12.9 | 0.00 | 0.86 | 0.86 | 69 | 1014.9 |
| 20260905220007 | 26 | 239 | 3.2 | 12.9 | 0.00 | 0.86 | 0.86 | 69 | 1011.3 |
| 20260905215828 | 26 | 246 | 3.2 | 12.9 | 0.00 | 0.86 | 0.86 | 69 | 1014.9 |
| 20260905215328 | 26 | 234 | 4.8 | 11.3 | 0.00 | 0.86 | 0.86 | 70 | 1014.8 |
| 20260905214819 | 26 | 270 | 6.4 | 17.7 | 0.00 | 0.86 | 0.86 | 71 | 1014.8 |
| 20260905214558 | 26 | 252 | 3.2 | 17.7 | 0.00 | 0.86 | 0.86 | 71 | 1011.2 |
| 20260905214316 | 26 | 229 | 6.4 | 17.7 | 0.00 | 0.86 | 0.86 | 69 | 1014.7 |
| 20260905213800 | 26 | 251 | 4.8 | 14.5 | 0.00 | 0.86 | 0.86 | 70 | 1014.7 |
| 20260905213253 | 26 | 244 | 4.8 | 14.5 | 0.00 | 0.86 | 0.86 | 68 | 1014.6 |
| 20260905213036 | 26 | 250 | 3.2 | 14.5 | 0.00 | 0.86 | 0.86 | 68 | 1011.1 |
| 20260905213018 | 26 | 213 | 3.2 | 14.5 | 0.00 | 0.86 | 0.86 | 67 | 1014.6 |
| 20260905212236 | 26 | 258 | 1.6 | 11.3 | 0.00 | 0.86 | 0.86 | 68 | 1014.7 |
| 20260905211732 | 26 | 267 | 3.2 | 11.3 | 0.00 | 0.86 | 0.86 | 70 | 1014.6 |
| 20260905211526 | 26 | 267 | 1.6 | 11.3 | 0.00 | 0.86 | 0.86 | 69 | 1011.1 |
| 20260905211500 | 26 | 259 | 4.8 | 11.3 | 0.00 | 0.86 | 0.86 | 69 | 1014.6 |
| 20260905210727 | 26 | 231 | 4.8 | 14.5 | 0.00 | 0.86 | 0.86 | 68 | 1014.5 |
| 20260905210721 | 26 | 252 | 6.4 | 14.5 | 0.00 | 0.86 | 0.86 | 70 | 1014.6 |
| 20260905210106 | 26 | 242 | 4.8 | 12.9 | 0.00 | 0.86 | 0.86 | 69 | 1011.0 |
| 20260905205714 | 26 | 239 | 4.8 | 11.3 | 0.00 | 0.86 | 0.86 | 69 | 1014.5 |
| 20260905205210 | 26 | 232 | 4.8 | 11.3 | 0.00 | 0.86 | 0.86 | 69 | 1014.6 |
| 20260905204701 | 26 | 246 | 3.2 | 11.3 | 0.00 | 0.86 | 0.86 | 70 | 1014.6 |
| 20260905204538 | 26 | 187 | 4.8 | 9.7 | 0.00 | 2.57 | 0.86 | 71 | 1011.1 |
| 20260905204153 | 26 | 275 | 4.8 | 14.5 | 0.00 | 0.86 | 0.86 | 72 | 1014.6 |
| 20260905203640 | 25 | 248 | 6.4 | 14.5 | 0.00 | 0.86 | 0.86 | 71 | 1014.5 |
| 20260905203133 | 25 | 267 | 6.4 | 14.5 | 0.00 | 0.89 | 0.86 | 73 | 1014.4 |
| 20260905203013 | 25 | 267 | 6.4 | 14.5 | 0.00 | 2.57 | 0.86 | 71 | 1011.1 |
| 20260905202625 | 25 | 263 | 4.8 | 14.5 | 0.00 | 0.91 | 0.86 | 73 | 1014.6 |
| 20260905202351 | 25 | 238 | 3.2 | 14.5 | 0.00 | 0.91 | 0.86 | 72 | 1014.5 |
| 20260905201610 | 25 | 250 | 4.8 | 14.5 | 0.00 | 1.14 | 0.86 | 73 | 1014.5 |
| 20260905201547 | 25 | 252 | 4.8 | 14.5 | 0.00 | 2.57 | 0.86 | 72 | 1011.0 |
| 20260905201059 | 25 | 257 | 4.8 | 12.9 | 0.00 | 1.14 | 0.86 | 74 | 1014.6 |
| 20260905200546 | 25 | 194 | 3.2 | 12.9 | 0.00 | 1.14 | 0.86 | 72 | 1014.6 |
| 20260905200030 | 25 | 253 | 4.8 | 12.9 | 0.00 | 1.14 | 0.86 | 73 | 1014.6 |
| 20260905200007 | 25 | 236 | 1.6 | 12.9 | 0.00 | 2.57 | 0.86 | 73 | 1011.1 |
| 20260905195519 | 24 | 281 | 4.8 | 12.9 | 0.00 | 1.14 | 0.86 | 72 | 1014.7 |
| 20260905195241 | 24 | 267 | 3.2 | 12.9 | 0.00 | 1.14 | 0.86 | 73 | 1014.7 |
| 20260905194539 | 24 | 273 | 1.6 | 11.3 | 0.00 | 2.57 | 0.86 | 75 | 1011.1 |
| 20260905194459 | 24 | 245 | 3.2 | 11.3 | 0.03 | 1.14 | 0.86 | 76 | 1014.7 |
| 20260905193947 | 23 | 304 | 3.2 | 9.7 | 0.03 | 1.14 | 0.86 | 77 | 1014.8 |
| 20260905193434 | 23 | 246 | 3.2 | 11.3 | 0.03 | 1.14 | 0.86 | 76 | 1014.9 |
| 20260905193003 | 23 | 255 | 4.8 | 11.3 | 0.03 | 2.57 | 0.86 | 76 | 1011.3 |
| 20260905192923 | 23 | 245 | 3.2 | 11.3 | 0.03 | 1.14 | 0.86 | 76 | 1014.7 |
| 20260905192413 | 23 | 232 | 3.2 | 11.3 | 0.03 | 1.14 | 0.86 | 79 | 1014.7 |
| 20260905191903 | 23 | 226 | 1.6 | 11.3 | 0.03 | 1.14 | 0.86 | 81 | 1014.9 |
| 20260905191540 | 22 | 294 | 3.2 | 11.3 | 0.03 | 2.57 | 0.86 | 81 | 1011.3 |
| 20260905191354 | 22 | 248 | 0.0 | 4.8 | 0.03 | 1.14 | 0.86 | 82 | 1014.9 |
| 20260905190844 | 22 | 305 | 1.6 | 6.4 | 0.03 | 1.14 | 0.86 | 83 | 1014.9 |
| 20260905190329 | 22 | 221 | 3.2 | 6.4 | 0.03 | 1.14 | 0.86 | 83 | 1015.1 |
| 20260905190003 | 22 | 236 | 3.2 | 8.0 | 0.03 | 2.57 | 0.86 | 83 | 1011.7 |
| 20260905185819 | 22 | 200 | 3.2 | 11.3 | 0.03 | 1.14 | 0.86 | 82 | 1015.3 |
| 20260905185305 | 22 | 252 | 3.2 | 11.3 | 0.03 | 1.14 | 0.86 | 82 | 1015.5 |
| 20260905184751 | 22 | 217 | 3.2 | 9.7 | 0.03 | 1.14 | 0.86 | 83 | 1015.5 |
| 20260905184525 | 22 | 217 | 4.8 | 9.7 | 0.03 | 2.57 | 0.86 | 83 | 1012.1 |
| 20260905184242 | 22 | 254 | 1.6 | 8.0 | 0.00 | 1.12 | 0.84 | 84 | 1015.7 |
| 20260905183730 | 22 | 257 | 0.0 | 0.0 | 0.00 | 1.12 | 0.84 | 84 | 1015.8 |
| 20260905183216 | 21 | 252 | 0.0 | 3.2 | 0.00 | 1.12 | 0.84 | 85 | 1015.9 |
| 20260905183051 | 21 | 252 | 0.0 | 3.2 | 0.00 | 2.54 | 0.84 | 85 | 1012.3 |
| 20260905182705 | 21 | 252 | 0.0 | 3.2 | 0.00 | 1.12 | 0.84 | 86 | 1015.9 |
| 20260905182155 | 21 | 324 | 0.0 | 4.8 | 0.00 | 1.12 | 0.84 | 86 | 1016.1 |
| 20260905181646 | 21 | 243 | 0.0 | 4.8 | 0.00 | 1.12 | 0.84 | 86 | 1016.2 |
| 20260905181522 | 21 | 243 | 1.6 | 4.8 | 0.00 | 2.54 | 0.84 | 86 | 1012.7 |
| 20260905181135 | 21 | 248 | 0.0 | 3.2 | 0.00 | 1.12 | 0.84 | 87 | 1016.2 |
| 20260905180625 | 20 | 248 | 1.6 | 6.4 | 0.00 | 1.12 | 0.84 | 87 | 1016.3 |
| 20260905180111 | 20 | 234 | 1.6 | 6.4 | 0.00 | 1.12 | 0.84 | 87 | 1016.4 |
| 20260905180049 | 20 | 234 | 0.0 | 6.4 | 0.00 | 2.54 | 0.84 | 87 | 1012.9 |
| 20260905175833 | 20 | 232 | 1.6 | 6.4 | 0.03 | 1.12 | 0.84 | 87 | 1016.5 |
| 20260905175555 | 20 | 227 | 0.0 | 4.8 | 0.03 | 1.12 | 0.84 | 88 | 1016.6 |
| 20260905174533 | 20 | 213 | 1.6 | 11.3 | 0.05 | 1.12 | 0.84 | 88 | 1016.5 |
| 20260905174519 | 20 | 214 | 0.0 | 11.3 | 0.05 | 2.54 | 0.84 | 88 | 1013.0 |
| 20260905174023 | 20 | 246 | 1.6 | 11.3 | 0.08 | 1.12 | 0.84 | 87 | 1016.5 |
| 20260905173508 | 20 | 244 | 0.0 | 4.8 | 0.10 | 1.12 | 0.84 | 87 | 1016.6 |
| 20260905173456 | 20 | 12 | 0.0 | 1.6 | 0.13 | 1.12 | 0.84 | 87 | 1016.6 |
| 20260905173037 | 20 | 12 | 0.0 | 1.6 | 0.10 | 2.54 | 0.84 | 87 | 1012.9 |
| 20260905172443 | 19 | 12 | 1.6 | 3.2 | 0.13 | 1.12 | 0.84 | 87 | 1016.6 |
| 20260905171933 | 19 | 12 | 1.6 | 6.4 | 0.15 | 1.12 | 0.84 | 86 | 1016.7 |
| 20260905171511 | 19 | 263 | 3.2 | 11.3 | 0.18 | 2.54 | 0.84 | 86 | 1013.1 |
| 20260905171428 | 19 | 221 | 3.2 | 11.3 | 0.18 | 1.12 | 0.84 | 86 | 1016.8 |
| 20260905170924 | 19 | 78 | 3.2 | 11.3 | 0.20 | 1.12 | 0.84 | 86 | 1016.3 |
| 20260905170415 | 19 | 74 | 1.6 | 9.7 | 0.23 | 1.12 | 0.84 | 86 | 1016.7 |
| 20260905170043 | 19 | 189 | 1.6 | 6.4 | 0.33 | 2.54 | 0.84 | 86 | 1013.3 |
| 20260905165916 | 19 | 221 | 1.6 | 4.8 | 0.46 | 1.12 | 0.84 | 86 | 1017.3 |
| 20260905165417 | 19 | 63 | 1.6 | 4.8 | 0.81 | 1.09 | 0.81 | 86 | 1017.5 |
| 20260905164900 | 20 | 42 | 1.6 | 4.8 | 0.79 | 1.07 | 0.79 | 85 | 1018.0 |
| 20260905164532 | 20 | 15 | 0.0 | 3.2 | 0.79 | 2.49 | 0.79 | 85 | 1014.5 |
| 20260905164350 | 20 | 15 | 1.6 | 3.2 | 0.79 | 1.07 | 0.79 | 85 | 1018.3 |
| 20260905163839 | 20 | 81 | 3.2 | 9.7 | 0.76 | 1.04 | 0.76 | 85 | 1018.6 |
| 20260905163329 | 20 | 107 | 4.8 | 9.7 | 0.74 | 1.02 | 0.74 | 84 | 1019.0 |
| 20260905163059 | 20 | 119 | 4.8 | 9.7 | 0.71 | 2.41 | 0.71 | 84 | 1015.3 |
| 20260905162815 | 20 | 140 | 3.2 | 6.4 | 0.71 | 0.99 | 0.71 | 83 | 1019.3 |
| 20260905162306 | 20 | 134 | 1.6 | 4.8 | 0.69 | 0.97 | 0.69 | 82 | 1019.5 |
| 20260905161755 | 20 | 76 | 1.6 | 4.8 | 0.66 | 0.94 | 0.66 | 82 | 1019.6 |
| 20260905161526 | 20 | 76 | 1.6 | 14.5 | 0.66 | 2.36 | 0.66 | 82 | 1015.7 |
| 20260905161243 | 20 | 248 | 3.2 | 37.0 | 0.66 | 0.94 | 0.66 | 82 | 1019.8 |
| 20260905160734 | 21 | 336 | 8.0 | 37.0 | 0.64 | 0.91 | 0.64 | 81 | 1019.8 |
| 20260905160224 | 22 | 37 | 9.7 | 38.6 | 0.51 | 0.79 | 0.56 | 80 | 1019.9 |
| 20260905155709 | 23 | 327 | 4.8 | 38.6 | 0.10 | 0.38 | 0.15 | 78 | 1019.8 |
| 20260905155200 | 25 | 296 | 1.6 | 3.2 | 0.00 | 0.28 | 0.00 | 80 | 1018.5 |
| 20260905154650 | 25 | 221 | 1.6 | 6.4 | 0.00 | 0.28 | 0.00 | 79 | 1017.3 |
| 20260905154525 | 25 | 221 | 0.0 | 6.4 | 0.00 | 1.70 | 0.00 | 79 | 1013.3 |
| 20260905154139 | 25 | 263 | 3.2 | 11.3 | 0.00 | 0.28 | 0.00 | 79 | 1017.1 |
| 20260905153630 | 25 | 229 | 4.8 | 11.3 | 0.00 | 0.28 | 0.00 | 78 | 1017.4 |
| 20260905153119 | 25 | 229 | 4.8 | 11.3 | 0.00 | 0.28 | 0.00 | 77 | 1017.1 |
| 20260905153052 | 25 | 228 | 4.8 | 11.3 | 0.00 | 1.70 | 0.00 | 77 | 1013.2 |
| 20260905152606 | 26 | 239 | 4.8 | 14.5 | 0.00 | 0.28 | 0.00 | 77 | 1017.0 |
| 20260905152055 | 26 | 196 | 3.2 | 14.5 | 0.00 | 0.28 | 0.00 | 76 | 1016.9 |
| 20260905151545 | 26 | 189 | 3.2 | 11.3 | 0.00 | 0.28 | 0.00 | 76 | 1017.0 |
| 20260905151523 | 26 | 180 | 1.6 | 11.3 | 0.00 | 1.70 | 0.00 | 76 | 1013.2 |
| 20260905151036 | 26 | 229 | 3.2 | 8.0 | 0.00 | 0.28 | 0.00 | 76 | 1017.1 |
| 20260905150526 | 26 | 265 | 3.2 | 12.9 | 0.00 | 0.28 | 0.00 | 77 | 1017.0 |
| 20260905150105 | 26 | 265 | 4.8 | 11.3 | 0.00 | 1.70 | 0.00 | 78 | 1013.1 |
| 20260905150017 | 26 | 165 | 3.2 | 12.9 | 0.00 | 0.28 | 0.00 | 77 | 1016.9 |
| 20260905145508 | 26 | 269 | 3.2 | 12.9 | 0.00 | 0.28 | 0.00 | 78 | 1016.8 |
| 20260905145000 | 25 | 329 | 3.2 | 12.9 | 0.00 | 0.28 | 0.00 | 79 | 1016.9 |
| 20260905144536 | 25 | 328 | 0.0 | 11.3 | 0.00 | 1.70 | 0.00 | 78 | 1013.0 |
| 20260905144451 | 25 | 337 | 4.8 | 14.5 | 0.00 | 0.28 | 0.00 | 79 | 1016.8 |
| 20260905143944 | 25 | 241 | 4.8 | 16.1 | 0.00 | 0.28 | 0.00 | 79 | 1016.6 |
| 20260905143434 | 25 | 250 | 4.8 | 16.1 | 0.00 | 0.28 | 0.00 | 79 | 1016.7 |
| 20260905143158 | 25 | 263 | 4.8 | 16.1 | 0.00 | 0.28 | 0.00 | 80 | 1016.7 |
| 20260905143007 | 25 | 246 | 4.8 | 11.3 | 0.00 | 1.70 | 0.00 | 80 | 1012.9 |
| 20260905142415 | 24 | 240 | 4.8 | 16.1 | 0.00 | 0.28 | 0.00 | 80 | 1016.8 |
| 20260905141910 | 24 | 265 | 1.6 | 11.3 | 0.00 | 0.28 | 0.00 | 81 | 1016.8 |
| 20260905141630 | 23 | 224 | 3.2 | 6.4 | 0.00 | 0.28 | 0.00 | 84 | 1016.9 |
| 20260905141544 | 24 | 284 | 1.6 | 6.4 | 0.00 | 1.70 | 0.00 | 83 | 1013.0 |
| 20260905141505 | 24 | 355 | 3.2 | 8.0 | 0.00 | 0.28 | 0.00 | 83 | 1016.9 |
| 20260905141003 | 23 | 181 | 3.2 | 8.0 | 0.00 | 0.28 | 0.00 | 84 | 1016.9 |
| 20260905140032 | 23 | 273 | 1.6 | 11.3 | 0.00 | 1.70 | 0.00 | 86 | 1013.3 |
| 20260905135853 | 23 | 231 | 3.2 | 11.3 | 0.00 | 0.28 | 0.00 | 86 | 1017.1 |
| 20260905135343 | 22 | 250 | 3.2 | 11.3 | 0.00 | 0.28 | 0.00 | 86 | 1017.0 |
| 20260905134838 | 22 | 241 | 1.6 | 4.8 | 0.00 | 0.28 | 0.00 | 88 | 1017.1 |
| 20260905134517 | 22 | 234 | 1.6 | 4.8 | 0.00 | 1.70 | 0.00 | 89 | 1013.2 |
| 20260905134335 | 22 | 294 | 1.6 | 4.8 | 0.00 | 0.28 | 0.00 | 89 | 1016.9 |
| 20260905134202 | 22 | 325 | 1.6 | 4.8 | 0.00 | 0.28 | 0.00 | 90 | 1016.9 |
| 20260905134055 | 21 | 223 | 1.6 | 4.8 | 0.00 | 0.28 | 0.00 | 89 | 1017.0 |
| 20260905133200 | 21 | 251 | 1.6 | 4.8 | 0.00 | 1.70 | 0.00 | 90 | 1013.2 |
| 20260905132817 | 21 | 249 | 0.0 | 4.8 | 0.00 | 0.28 | 0.00 | 90 | 1017.0 |
| 20260905132311 | 21 | 313 | 1.6 | 4.8 | 0.00 | 0.28 | 0.00 | 90 | 1017.0 |
| 20260905131804 | 21 | 219 | 1.6 | 4.8 | 0.00 | 0.28 | 0.00 | 90 | 1017.0 |
| 20260905131540 | 20 | 209 | 1.6 | 4.8 | 0.00 | 1.70 | 0.00 | 90 | 1013.4 |
| 20260905131529 | 20 | 234 | 1.6 | 4.8 | 0.00 | 0.28 | 0.00 | 90 | 1017.4 |
| 20260905130749 | 20 | 214 | 1.6 | 4.8 | 0.00 | 0.28 | 0.00 | 91 | 1017.4 |
| 20260905130243 | 20 | 217 | 1.6 | 4.8 | 0.00 | 0.28 | 0.00 | 90 | 1017.5 |
| 20260905130020 | 20 | 188 | 0.0 | 1.6 | 0.00 | 1.70 | 0.00 | 90 | 1013.7 |
| 20260905125740 | 20 | 188 | 1.6 | 3.2 | 0.00 | 0.28 | 0.00 | 91 | 1017.6 |
| 20260905125230 | 20 | 188 | 1.6 | 3.2 | 0.00 | 0.28 | 0.00 | 90 | 1017.6 |
| 20260905124956 | 20 | 94 | 0.0 | 1.6 | 0.00 | 0.28 | 0.00 | 91 | 1017.5 |
| 20260905124601 | 20 | 94 | 0.0 | 1.6 | 0.00 | 1.70 | 0.00 | 91 | 1013.7 |
| 20260905124215 | 20 | 94 | 0.0 | 1.6 | 0.00 | 0.28 | 0.00 | 91 | 1017.5 |
| 20260905123707 | 20 | 107 | 0.0 | 1.6 | 0.00 | 0.28 | 0.00 | 91 | 1017.5 |
| 20260905123158 | 19 | 107 | 0.0 | 1.6 | 0.00 | 0.28 | 0.00 | 91 | 1017.5 |
| 20260905123045 | 19 | 107 | 0.0 | 1.6 | 0.00 | 1.70 | 0.00 | 91 | 1013.7 |
| 20260905122650 | 19 | 107 | 0.0 | 1.6 | 0.00 | 0.28 | 0.00 | 91 | 1017.4 |
| 20260905122135 | 18 | 107 | 0.0 | 1.6 | 0.00 | 0.28 | 0.00 | 91 | 1017.4 |
| 20260905121627 | 18 | 107 | 0.0 | 1.6 | 0.00 | 0.28 | 0.00 | 91 | 1017.4 |
| 20260905121502 | 18 | 107 | 0.0 | 1.6 | 0.00 | 1.70 | 0.00 | 91 | 1013.7 |
| 20260905121118 | 18 | 107 | 0.0 | 0.0 | 0.00 | 0.28 | 0.00 | 91 | 1017.4 |
| 20260905120614 | 18 | 107 | 0.0 | 0.0 | 0.00 | 0.28 | 0.00 | 91 | 1017.3 |
| 20260905120114 | 18 | 107 | 0.0 | 0.0 | 0.00 | 0.28 | 0.00 | 91 | 1017.4 |
| 20260905120055 | 18 | 107 | 0.0 | 0.0 | 0.00 | 1.70 | 0.00 | 91 | 1013.7 |
| 20260905115558 | 18 | 107 | 0.0 | 0.0 | 0.00 | 0.28 | 0.00 | 91 | 1017.4 |
| 20260905115044 | 17 | 107 | 0.0 | 0.0 | 0.00 | 0.28 | 0.00 | 91 | 1017.3 |
| 20260905114535 | 17 | 107 | 0.0 | 0.0 | 0.00 | 0.28 | 0.00 | 91 | 1017.0 |
| 20260905114517 | 17 | 107 | 0.0 | 0.0 | 0.00 | 1.70 | 0.00 | 91 | 1013.4 |
| 20260905114024 | 17 | 107 | 0.0 | 0.0 | 0.00 | 0.28 | 0.00 | 90 | 1017.0 |
| 20260905113515 | 17 | 107 | 0.0 | 0.0 | 0.00 | 0.28 | 0.00 | 90 | 1016.9 |
| 20260905113044 | 17 | 107 | 0.0 | 0.0 | 0.00 | 1.70 | 0.00 | 90 | 1013.3 |
| 20260905113005 | 17 | 107 | 0.0 | 0.0 | 0.00 | 0.28 | 0.00 | 90 | 1016.9 |
| 20260905112454 | 17 | 107 | 0.0 | 1.6 | 0.00 | 0.28 | 0.00 | 90 | 1016.9 |
| 20260905111940 | 17 | 107 | 0.0 | 1.6 | 0.00 | 0.28 | 0.00 | 90 | 1016.9 |
| 20260905111510 | 17 | 107 | 0.0 | 1.6 | 0.00 | 1.70 | 0.00 | 90 | 1013.2 |
| 20260905111430 | 17 | 107 | 0.0 | 1.6 | 0.00 | 0.28 | 0.00 | 90 | 1016.9 |
| 20260905110920 | 17 | 107 | 0.0 | 0.0 | 0.00 | 0.28 | 0.00 | 90 | 1016.9 |
| 20260905110411 | 17 | 107 | 0.0 | 1.6 | 0.00 | 0.28 | 0.00 | 90 | 1016.8 |
| 20260905110132 | 17 | 107 | 0.0 | 1.6 | 0.00 | 0.28 | 0.00 | 90 | 1016.7 |
| 20260905110051 | 17 | 107 | 0.0 | 1.6 | 0.00 | 1.70 | 0.00 | 90 | 1013.0 |
| 20260905105623 | 17 | 107 | 0.0 | 0.0 | 0.00 | 0.28 | 0.00 | 90 | 1016.7 |
| 20260905104837 | 17 | 107 | 0.0 | 0.0 | 0.00 | 0.28 | 0.00 | 90 | 1016.7 |
| 20260905104516 | 17 | 107 | 0.0 | 0.0 | 0.00 | 1.70 | 0.00 | 90 | 1013.1 |
| 20260905104326 | 17 | 107 | 0.0 | 0.0 | 0.00 | 0.28 | 0.00 | 90 | 1016.7 |
| 20260905103816 | 17 | 107 | 0.0 | 0.0 | 0.00 | 0.28 | 0.00 | 90 | 1016.7 |
| 20260905103306 | 17 | 107 | 0.0 | 0.0 | 0.00 | 0.28 | 0.00 | 90 | 1016.6 |
| 20260905103041 | 17 | 107 | 0.0 | 0.0 | 0.00 | 1.70 | 0.00 | 90 | 1012.9 |
| 20260905102757 | 17 | 107 | 0.0 | 0.0 | 0.00 | 0.28 | 0.00 | 90 | 1016.5 |
| 20260905102239 | 17 | 107 | 0.0 | 0.0 | 0.00 | 0.28 | 0.00 | 90 | 1016.4 |
| 20260905101724 | 17 | 107 | 0.0 | 1.6 | 0.00 | 0.28 | 0.00 | 90 | 1016.5 |
| 20260905101600 | 17 | 107 | 0.0 | 1.6 | 0.00 | 1.70 | 0.00 | 90 | 1012.7 |
| 20260905101446 | 17 | 107 | 0.0 | 1.6 | 0.00 | 0.28 | 0.00 | 90 | 1016.5 |
| 20260905100708 | 17 | 107 | 0.0 | 0.0 | 0.00 | 0.28 | 0.00 | 90 | 1016.5 |
| 20260905100158 | 17 | 107 | 0.0 | 0.0 | 0.00 | 0.28 | 0.00 | 90 | 1016.3 |
| 20260905100034 | 17 | 107 | 0.0 | 0.0 | 0.00 | 1.70 | 0.00 | 90 | 1012.6 |
| 20260905095649 | 17 | 107 | 0.0 | 0.0 | 0.00 | 0.28 | 0.00 | 90 | 1016.3 |
| 20260905095419 | 17 | 107 | 0.0 | 0.0 | 0.00 | 0.28 | 0.00 | 90 | 1016.3 |
| 20260905094632 | 17 | 107 | 0.0 | 0.0 | 0.00 | 0.28 | 0.00 | 90 | 1016.4 |
| 20260905094508 | 17 | 107 | 0.0 | 0.0 | 0.00 | 1.70 | 0.00 | 90 | 1012.7 |
| 20260905094122 | 17 | 107 | 0.0 | 0.0 | 0.00 | 0.28 | 0.00 | 90 | 1016.4 |